createdAt,value
2022-10-18T00:00:32.739Z,92.64
2022-10-18T00:01:33.336Z,93.31
2022-10-18T00:02:34.512Z,93.5
2022-10-18T00:03:34.734Z,93.6
2022-10-18T00:04:35.540Z,94.26
2022-10-18T00:05:36.768Z,94.65
2022-10-18T00:06:39.805Z,94.17
2022-10-18T00:07:38.840Z,94.55
2022-10-18T00:08:39.460Z,95.7
2022-10-18T00:09:40.091Z,94.84
2022-10-18T00:10:41.406Z,94.74
2022-10-18T00:11:42.302Z,94.17
2022-10-18T00:12:43.040Z,95.61
2022-10-18T00:13:43.335Z,95.61
2022-10-18T00:14:44.247Z,95.17
2022-10-18T00:15:44.158Z,94.93
2022-10-18T00:16:45.083Z,94.07
2022-10-18T00:17:45.311Z,94.07
2022-10-18T00:18:45.225Z,94.46
2022-10-18T00:19:46.137Z,94.55
2022-10-18T00:20:46.849Z,94.36
2022-10-18T00:21:47.154Z,94.84
2022-10-18T00:22:47.348Z,94.36
2022-10-18T00:23:47.980Z,94.84
2022-10-18T00:24:48.177Z,94.74
2022-10-18T00:25:48.688Z,94.07
2022-10-18T00:26:49.643Z,94.74
2022-10-18T00:27:50.559Z,95.12
2022-10-18T00:28:50.902Z,95.12
2022-10-18T00:29:51.084Z,94.93
2022-10-18T00:30:51.877Z,95.51
2022-10-18T00:31:52.522Z,94.55
2022-10-18T00:32:52.747Z,95.22
2022-10-18T00:33:53.669Z,94.93
2022-10-18T00:34:53.985Z,95.61
2022-10-18T00:35:54.950Z,95.07
2022-10-18T00:36:55.835Z,95.56
2022-10-18T00:37:56.174Z,95.36
2022-10-18T00:38:56.788Z,96.22
2022-10-18T00:39:57.762Z,95.94
2022-10-18T00:40:57.261Z,96.13
2022-10-18T00:41:58.198Z,96.13
2022-10-18T00:42:58.393Z,95.94
2022-10-18T00:43:59.588Z,96.32
2022-10-18T00:45:00.524Z,95.94
2022-10-18T00:46:00.437Z,95.56
2022-10-18T00:47:01.330Z,95.32
2022-10-18T00:48:02.559Z,96.13
2022-10-18T00:49:03.470Z,96.22
2022-10-18T00:50:04.372Z,96.32
2022-10-18T00:51:05.103Z,96.13
2022-10-18T00:52:05.705Z,96.03
2022-10-18T00:53:06.316Z,95.84
2022-10-18T00:54:06.295Z,96.03
2022-10-18T00:55:07.220Z,96.18
2022-10-18T00:56:07.457Z,95.32
2022-10-18T00:57:08.052Z,96.13
2022-10-18T00:58:08.677Z,95.36
2022-10-18T00:59:09.597Z,95.56
2022-10-18T01:00:10.519Z,95.56
2022-10-18T01:01:11.313Z,95.56
2022-10-18T01:02:11.969Z,95.61
2022-10-18T01:03:12.586Z,95.61
2022-10-18T01:04:13.507Z,95.7
2022-10-18T01:05:13.429Z,95.56
2022-10-18T01:06:14.109Z,95.46
2022-10-18T01:07:14.700Z,95.46
2022-10-18T01:08:15.015Z,94.98
2022-10-18T01:09:15.550Z,95.46
2022-10-18T01:10:15.760Z,94.12
2022-10-18T01:11:16.778Z,94.79
2022-10-18T01:12:17.277Z,94.17
2022-10-18T01:13:19.849Z,94.51
2022-10-18T01:14:18.581Z,94.7
2022-10-18T01:15:18.897Z,94.7
2022-10-18T01:16:20.235Z,95.27
2022-10-18T01:17:20.850Z,94.7
2022-10-18T01:18:22.255Z,94.65
2022-10-18T01:19:22.600Z,95.51
2022-10-18T01:20:23.090Z,95.07
2022-10-18T01:21:23.232Z,95.61
2022-10-18T01:22:24.446Z,95.98
2022-10-18T01:23:24.672Z,95.98
2022-10-18T01:24:25.289Z,96.03
2022-10-18T01:25:25.795Z,96.13
2022-10-18T01:26:25.730Z,95.75
2022-10-18T01:27:26.351Z,96.03
2022-10-18T01:28:27.009Z,96.03
2022-10-18T01:29:27.199Z,96.7
2022-10-18T01:30:28.170Z,96.42
2022-10-18T01:31:29.184Z,96.7
2022-10-18T01:32:29.776Z,97.18
2022-10-18T01:33:30.706Z,97.08
2022-10-18T01:34:31.326Z,97.47
2022-10-18T01:35:31.515Z,97.47
2022-10-18T01:36:32.149Z,97.75
2022-10-18T01:37:32.952Z,98.04
2022-10-18T01:38:33.003Z,98.57
2022-10-18T01:39:32.894Z,98.75
2022-10-18T01:40:33.092Z,99.71
2022-10-18T01:41:33.398Z,99.71
2022-10-18T01:42:34.044Z,99.8
2022-10-18T01:43:34.954Z,99.62
2022-10-18T01:44:34.870Z,99.71
2022-10-18T01:45:35.362Z,99.14
2022-10-18T01:46:36.253Z,99.04
2022-10-18T01:47:37.385Z,98.94
2022-10-18T01:48:37.592Z,98.85
2022-10-18T01:49:37.789Z,98.85
2022-10-18T01:50:38.711Z,98.57
2022-10-18T01:51:38.725Z,98.18
2022-10-18T01:52:40.117Z,98.08
2022-10-18T01:53:40.052Z,97.71
2022-10-18T01:54:40.256Z,97.61
2022-10-18T01:55:40.916Z,97.61
2022-10-18T01:56:41.643Z,97.08
2022-10-18T01:57:42.135Z,97.32
2022-10-18T01:58:42.751Z,97.42
2022-10-18T01:59:42.944Z,97.42
2022-10-18T02:00:43.258Z,97.03
2022-10-18T02:01:43.985Z,97.03
2022-10-18T02:02:44.882Z,97.03
2022-10-18T02:03:46.091Z,96.94
2022-10-18T02:04:46.708Z,97.23
2022-10-18T02:05:47.646Z,97.42
2022-10-18T02:06:48.263Z,98.37
2022-10-18T02:07:55.236Z,97.32
2022-10-18T02:08:49.532Z,97.99
2022-10-18T02:09:50.433Z,97.13
2022-10-18T02:10:50.823Z,97.89
2022-10-18T02:11:52.134Z,97.61
2022-10-18T02:12:53.049Z,97.52
2022-10-18T02:13:53.388Z,97.8
2022-10-18T02:14:54.303Z,98.37
2022-10-18T02:15:54.524Z,98.37
2022-10-18T02:16:54.717Z,98.18
2022-10-18T02:17:54.630Z,97.89
2022-10-18T02:18:55.136Z,97.99
2022-10-18T02:19:55.773Z,98.47
2022-10-18T02:20:56.391Z,98.18
2022-10-18T02:21:56.555Z,99.14
2022-10-18T02:22:57.032Z,98.94
2022-10-18T02:23:57.223Z,99.14
2022-10-18T02:24:58.140Z,99.14
2022-10-18T02:25:58.347Z,99.43
2022-10-18T02:26:58.859Z,99.52
2022-10-18T02:27:59.075Z,99.8
2022-10-18T02:28:59.414Z,99.47
2022-10-18T02:29:59.630Z,99.37
2022-10-18T02:30:59.840Z,99.28
2022-10-18T02:32:00.255Z,99.28
2022-10-18T02:33:01.171Z,99.85
2022-10-18T02:34:01.829Z,99.85
2022-10-18T02:35:02.733Z,99.37
2022-10-18T02:36:03.625Z,99.66
2022-10-18T02:37:04.560Z,99.28
2022-10-18T02:38:04.852Z,99.37
2022-10-18T02:39:05.059Z,99.37
2022-10-18T02:40:05.376Z,99.47
2022-10-18T02:41:06.287Z,99.57
2022-10-18T02:42:06.930Z,99.95
2022-10-18T02:43:07.892Z,99.99
2022-10-18T02:44:08.834Z,99.66
2022-10-18T02:45:08.728Z,99.95
2022-10-18T02:46:09.216Z,99.76
2022-10-18T02:47:09.909Z,99.76
2022-10-18T02:48:11.122Z,99.76
2022-10-18T02:49:11.347Z,99.99
2022-10-18T02:50:11.966Z,99.99
2022-10-18T02:51:12.300Z,99.99
2022-10-18T02:52:13.307Z,99.99
2022-10-18T02:53:13.487Z,99.76
2022-10-18T02:54:14.380Z,99.99
2022-10-18T02:55:15.404Z,99.52
2022-10-18T02:56:16.058Z,99.62
2022-10-18T02:57:16.727Z,99.99
2022-10-18T02:58:17.081Z,99.99
2022-10-18T02:59:17.723Z,99.99
2022-10-18T03:00:18.360Z,99.8
2022-10-18T03:01:18.772Z,99.99
2022-10-18T03:02:18.954Z,99.99
2022-10-18T03:03:19.572Z,99.95
2022-10-18T03:04:20.644Z,99.95
2022-10-18T03:05:20.601Z,99.95
2022-10-18T03:06:21.092Z,99.66
2022-10-18T03:07:22.033Z,99.47
2022-10-18T03:08:22.702Z,99.99
2022-10-18T03:09:23.624Z,99.47
2022-10-18T03:10:25.012Z,99.28
2022-10-18T03:11:25.217Z,99.99
2022-10-18T03:12:25.948Z,99.62
2022-10-18T03:13:27.024Z,99.52
2022-10-18T03:14:26.734Z,99.28
2022-10-18T03:15:27.654Z,99.52
2022-10-18T03:16:27.864Z,99.76
2022-10-18T03:17:28.206Z,99.99
2022-10-18T03:18:28.975Z,98.94
2022-10-18T03:19:29.201Z,99.23
2022-10-18T03:20:29.838Z,98.94
2022-10-18T03:21:30.037Z,99.04
2022-10-18T03:22:30.249Z,98.57
2022-10-18T03:23:30.437Z,98.18
2022-10-18T03:24:30.809Z,98.18
2022-10-18T03:25:31.710Z,97.99
2022-10-18T03:26:32.443Z,98.18
2022-10-18T03:27:32.979Z,97.99
2022-10-18T03:28:32.725Z,98.18
2022-10-18T03:29:33.100Z,97.8
2022-10-18T03:30:33.286Z,97.8
2022-10-18T03:31:34.205Z,98.18
2022-10-18T03:32:35.132Z,98.18
2022-10-18T03:33:34.965Z,98.28
2022-10-18T03:34:36.223Z,99.04
2022-10-18T03:35:37.134Z,98.47
2022-10-18T03:36:37.753Z,98.47
2022-10-18T03:37:38.095Z,99.04
2022-10-18T03:38:38.976Z,99.14
2022-10-18T03:39:39.292Z,99.04
2022-10-18T03:40:40.211Z,98.94
2022-10-18T03:41:40.780Z,99.04
2022-10-18T03:42:41.544Z,99.43
2022-10-18T03:43:42.441Z,98.85
2022-10-18T03:44:43.384Z,99.43
2022-10-18T03:45:44.295Z,99.43
2022-10-18T03:46:44.486Z,99.33
2022-10-18T03:47:45.123Z,99.71
2022-10-18T03:48:46.021Z,99.62
2022-10-18T03:49:46.604Z,99.71
2022-10-18T03:50:46.601Z,99.8
2022-10-18T03:51:47.497Z,99.9
2022-10-18T03:52:48.525Z,99.62
2022-10-18T03:53:49.158Z,99.71
2022-10-18T03:54:50.062Z,99.14
2022-10-18T03:55:50.257Z,99.04
2022-10-18T03:56:50.871Z,99.04
2022-10-18T03:57:51.143Z,99.47
2022-10-18T03:58:51.784Z,99.08
2022-10-18T03:59:52.012Z,99.37
2022-10-18T04:00:52.511Z,98.99
2022-10-18T04:01:53.241Z,99.08
2022-10-18T04:02:58.837Z,99.52
2022-10-18T04:03:54.456Z,99.23
2022-10-18T04:04:55.082Z,99.18
2022-10-18T04:05:55.696Z,99.08
2022-10-18T04:06:56.297Z,98.99
2022-10-18T04:07:56.955Z,99.23
2022-10-18T04:08:57.134Z,99.14
2022-10-18T04:09:57.816Z,98.99
2022-10-18T04:10:58.303Z,99.47
2022-10-18T04:11:58.510Z,99.28
2022-10-18T04:12:59.820Z,99.85
2022-10-18T04:14:00.439Z,99.66
2022-10-18T04:15:00.972Z,99.28
2022-10-18T04:16:01.903Z,99.85
2022-10-18T04:17:02.081Z,99.66
2022-10-18T04:18:03.021Z,99.66
2022-10-18T04:19:03.693Z,99.85
2022-10-18T04:20:04.915Z,99.99
2022-10-18T04:21:05.831Z,99.76
2022-10-18T04:22:06.445Z,99.99
2022-10-18T04:23:07.588Z,99.99
2022-10-18T04:24:08.169Z,99.99
2022-10-18T04:25:09.098Z,99.95
2022-10-18T04:26:09.314Z,99.99
2022-10-18T04:27:09.537Z,99.99
2022-10-18T04:28:10.140Z,99.99
2022-10-18T04:29:11.279Z,99.99
2022-10-18T04:30:11.386Z,99.99
2022-10-18T04:31:11.611Z,99.99
2022-10-18T04:32:12.087Z,99.99
2022-10-18T04:33:13.094Z,99.99
2022-10-18T04:34:14.040Z,99.99
2022-10-18T04:35:14.980Z,99.95
2022-10-18T04:36:14.921Z,99.95
2022-10-18T04:37:16.106Z,99.99
2022-10-18T04:38:17.070Z,99.99
2022-10-18T04:39:17.251Z,99.95
2022-10-18T04:40:17.468Z,99.99
2022-10-18T04:41:17.682Z,99.47
2022-10-18T04:42:17.882Z,99.37
2022-10-18T04:43:17.695Z,98.99
2022-10-18T04:44:18.623Z,99.37
2022-10-18T04:45:19.266Z,98.9
2022-10-18T04:46:20.183Z,98.8
2022-10-18T04:47:20.533Z,98.71
2022-10-18T04:48:21.453Z,98.28
2022-10-18T04:49:22.658Z,98.75
2022-10-18T04:50:23.162Z,98.57
2022-10-18T04:51:23.358Z,98.85
2022-10-18T04:52:24.567Z,98.37
2022-10-18T04:53:25.590Z,98.37
2022-10-18T04:54:29.366Z,98.28
2022-10-18T04:55:27.286Z,99.9
2022-10-18T04:56:27.615Z,99.62
2022-10-18T04:57:28.586Z,99.14
2022-10-18T04:58:28.958Z,98.47
2022-10-18T04:59:29.878Z,98.47
2022-10-18T05:00:31.094Z,99.04
2022-10-18T05:01:31.918Z,98.57
2022-10-18T05:02:32.350Z,98.75
2022-10-18T05:03:32.627Z,98.94
2022-10-18T05:04:32.942Z,99.14
2022-10-18T05:06:02.926Z,99.14
2022-10-18T05:06:34.948Z,99.71
2022-10-18T05:07:35.578Z,99.14
2022-10-18T05:08:36.540Z,98.85
2022-10-18T05:09:36.746Z,99.14
2022-10-18T05:10:37.339Z,98.66
2022-10-18T05:11:37.829Z,99.04
2022-10-18T05:12:38.531Z,98.94
2022-10-18T05:13:38.859Z,99.33
2022-10-18T05:14:38.769Z,99.23
2022-10-18T05:15:39.689Z,98.85
2022-10-18T05:16:39.911Z,98.85
2022-10-18T05:17:39.810Z,98.94
2022-10-18T05:18:40.123Z,98.28
2022-10-18T05:19:40.748Z,98.18
2022-10-18T05:20:42.002Z,98.28
2022-10-18T05:21:42.215Z,99.04
2022-10-18T05:22:42.813Z,99.04
2022-10-18T05:23:42.940Z,98.94
2022-10-18T05:24:43.548Z,99.14
2022-10-18T05:25:43.439Z,98.37
2022-10-18T05:26:44.325Z,99.04
2022-10-18T05:27:45.534Z,99.04
2022-10-18T05:28:46.856Z,98.66
2022-10-18T05:29:46.763Z,97.71
2022-10-18T05:30:47.423Z,97.71
2022-10-18T05:31:47.919Z,97.99
2022-10-18T05:32:48.555Z,98.18
2022-10-18T05:33:49.550Z,98.28
2022-10-18T05:34:50.131Z,98.28
2022-10-18T05:35:50.333Z,97.52
2022-10-18T05:36:50.934Z,97.89
2022-10-18T05:37:51.530Z,98.18
2022-10-18T05:38:52.173Z,97.8
2022-10-18T05:39:53.248Z,97.8
2022-10-18T05:40:53.854Z,98.18
2022-10-18T05:41:54.492Z,98.08
2022-10-18T05:42:54.704Z,97.8
2022-10-18T05:43:55.332Z,97.71
2022-10-18T05:44:56.271Z,96.56
2022-10-18T05:45:56.888Z,97.03
2022-10-18T05:46:57.329Z,96.27
2022-10-18T05:47:57.954Z,96.37
2022-10-18T05:48:58.143Z,95.7
2022-10-18T05:49:58.781Z,95.12
2022-10-18T05:50:58.996Z,95.03
2022-10-18T05:51:59.191Z,95.17
2022-10-18T05:53:07.090Z,95.51
2022-10-18T05:54:20.061Z,94.98
2022-10-18T05:55:20.663Z,95.17
2022-10-18T05:56:21.560Z,94.98
2022-10-18T05:57:22.351Z,94.6
2022-10-18T05:58:23.059Z,94.6
2022-10-18T05:59:23.569Z,94.6
2022-10-18T06:00:23.583Z,94.22
2022-10-18T06:01:24.797Z,94.02
2022-10-18T06:02:25.501Z,94.02
2022-10-18T06:03:25.260Z,94.6
2022-10-18T06:04:25.375Z,94.41
2022-10-18T06:05:25.772Z,94.7
2022-10-18T06:06:26.622Z,94.89
2022-10-18T06:07:26.520Z,94.6
2022-10-18T06:08:27.503Z,94.51
2022-10-18T06:09:28.162Z,94.98
2022-10-18T06:10:29.128Z,95.46
2022-10-18T06:11:30.363Z,95.27
2022-10-18T06:12:31.291Z,94.79
2022-10-18T06:13:32.496Z,95.46
2022-10-18T06:14:31.501Z,96.03
2022-10-18T06:15:32.692Z,95.36
2022-10-18T06:17:38.374Z,96.61
2022-10-18T06:18:34.827Z,96.32
2022-10-18T06:19:35.822Z,96.51
2022-10-18T06:20:36.433Z,96.61
2022-10-18T06:21:36.646Z,96.42
2022-10-18T06:22:37.302Z,96.61
2022-10-18T06:23:37.608Z,96.51
2022-10-18T06:24:38.074Z,95.94
2022-10-18T06:25:38.259Z,96.13
2022-10-18T06:26:38.463Z,95.56
2022-10-18T06:27:40.007Z,95.94
2022-10-18T06:28:40.390Z,95.56
2022-10-18T06:29:40.928Z,95.89
2022-10-18T06:30:41.248Z,95.94
2022-10-18T06:31:41.899Z,96.42
2022-10-18T06:32:42.390Z,96.66
2022-10-18T06:33:43.331Z,95.27
2022-10-18T06:34:43.776Z,94.93
2022-10-18T06:35:44.011Z,95.61
2022-10-18T06:36:44.542Z,95.07
2022-10-18T06:37:45.563Z,95.12
2022-10-18T06:38:45.482Z,95.61
2022-10-18T06:39:46.866Z,95.61
2022-10-18T06:40:47.061Z,94.74
2022-10-18T06:41:47.989Z,95.03
2022-10-18T06:43:00.353Z,93.98
2022-10-18T06:43:49.216Z,93.69
2022-10-18T06:44:49.589Z,94.17
2022-10-18T06:45:49.822Z,94.17
2022-10-18T06:46:50.037Z,93.79
2022-10-18T06:47:50.672Z,93.4
2022-10-18T06:48:51.609Z,92.93
2022-10-18T06:49:52.510Z,92.64
2022-10-18T06:50:53.429Z,92.25
2022-10-18T06:51:54.428Z,92.83
2022-10-18T06:52:54.458Z,92.59
2022-10-18T06:54:19.034Z,92.49
2022-10-18T06:55:09.406Z,92.49
2022-10-18T06:56:07.310Z,92.21
2022-10-18T06:57:08.241Z,91.92
2022-10-18T06:58:09.159Z,91.92
2022-10-18T06:59:09.081Z,91.53
2022-10-18T07:00:09.633Z,91.06
2022-10-18T07:01:09.684Z,90.58
2022-10-18T07:02:10.278Z,90.87
2022-10-18T07:03:11.486Z,91.06
2022-10-18T07:04:11.421Z,90.39
2022-10-18T07:05:12.309Z,89.58
2022-10-18T07:06:13.334Z,90.01
2022-10-18T07:07:14.573Z,89.76
2022-10-18T07:08:15.503Z,90.05
2022-10-18T07:09:15.416Z,89.95
2022-10-18T07:10:18.400Z,89.58
2022-10-18T07:11:17.039Z,89.76
2022-10-18T07:12:17.273Z,89.76
2022-10-18T07:13:37.599Z,89.95
2022-10-18T07:14:23.756Z,89.62
2022-10-18T07:15:19.759Z,89.58
2022-10-18T07:16:23.803Z,89.58
2022-10-18T07:17:20.422Z,89.24
2022-10-18T07:18:21.237Z,89
2022-10-18T07:19:21.870Z,89.19
2022-10-18T07:20:22.836Z,88.43
2022-10-18T07:21:22.769Z,88.62
2022-10-18T07:22:27.034Z,88.9
2022-10-18T07:23:24.641Z,89
2022-10-18T07:24:24.984Z,87.18
2022-10-18T07:25:27.059Z,87.27
2022-10-18T07:26:26.415Z,87.85
2022-10-18T07:27:27.058Z,88.47
2022-10-18T07:28:27.476Z,88.85
2022-10-18T07:29:27.848Z,87.7
2022-10-18T07:30:27.770Z,87.23
2022-10-18T07:31:28.483Z,87.7
2022-10-18T07:32:28.841Z,86.94
2022-10-18T07:33:30.112Z,86.98
2022-10-18T07:34:30.756Z,86.6
2022-10-18T07:35:31.275Z,86.21
2022-10-18T07:36:31.930Z,85.88
2022-10-18T07:37:36.022Z,84.91
2022-10-18T07:38:32.579Z,84.15
2022-10-18T07:39:33.203Z,84
2022-10-18T07:40:33.438Z,83.14
2022-10-18T07:41:33.367Z,81.41
2022-10-18T07:42:34.572Z,80.87
2022-10-18T07:43:35.495Z,80.2
2022-10-18T07:44:36.170Z,79.44
2022-10-18T07:46:38.038Z,78.42
2022-10-18T07:47:41.410Z,78.23
2022-10-18T07:48:39.499Z,79.28
2022-10-18T07:49:39.774Z,80.34
2022-10-18T07:50:40.855Z,80.09
2022-10-18T07:51:41.348Z,78.27
2022-10-18T07:52:41.582Z,78.17
2022-10-18T07:53:41.512Z,78.45
2022-10-18T07:54:41.803Z,78.84
2022-10-18T07:55:42.510Z,77.5
2022-10-18T07:56:42.999Z,78.08
2022-10-18T07:57:43.900Z,77.78
2022-10-18T07:58:44.520Z,77.4
2022-10-18T07:59:45.457Z,76.29
2022-10-18T08:00:46.468Z,76.29
2022-10-18T08:01:46.613Z,76.48
2022-10-18T08:02:46.839Z,76.86
2022-10-18T08:03:47.471Z,76.57
2022-10-18T08:04:48.297Z,76.52
2022-10-18T08:05:48.811Z,75.94
2022-10-18T08:06:49.760Z,75.65
2022-10-18T08:07:50.718Z,74.88
2022-10-18T08:08:50.854Z,74.54
2022-10-18T08:09:51.358Z,74.63
2022-10-18T08:10:52.036Z,75.49
2022-10-18T08:11:53.226Z,75.4
2022-10-18T08:12:53.558Z,75.21
2022-10-18T08:13:53.823Z,74.92
2022-10-18T08:14:55.056Z,75.4
2022-10-18T08:15:56.080Z,74.92
2022-10-18T08:16:56.367Z,74.82
2022-10-18T08:17:56.291Z,74.15
2022-10-18T08:18:57.761Z,74.92
2022-10-18T08:20:29.726Z,75.31
2022-10-18T08:20:58.284Z,75.59
2022-10-18T08:21:59.512Z,75.21
2022-10-18T08:23:05.306Z,75.02
2022-10-18T08:24:01.551Z,74.63
2022-10-18T08:25:01.899Z,74.6
2022-10-18T08:26:02.654Z,76.04
2022-10-18T08:27:03.641Z,75.84
2022-10-18T08:28:03.866Z,75.75
2022-10-18T08:29:29.212Z,76.52
2022-10-18T08:30:04.814Z,76.42
2022-10-18T08:31:05.069Z,75.46
2022-10-18T08:32:05.455Z,74.73
2022-10-18T08:33:05.299Z,73.51
2022-10-18T08:34:06.531Z,72.11
2022-10-18T08:35:09.866Z,70.6
2022-10-18T08:36:07.269Z,69.38
2022-10-18T08:37:08.333Z,69.32
2022-10-18T08:38:09.939Z,68.49
2022-10-18T08:39:10.672Z,66.66
2022-10-18T08:40:11.598Z,65.43
2022-10-18T08:41:12.876Z,65.43
2022-10-18T08:42:12.812Z,65.53
2022-10-18T08:43:14.602Z,64.66
2022-10-18T08:44:14.364Z,65.14
2022-10-18T08:45:37.662Z,66.59
2022-10-18T08:46:31.411Z,68.52
2022-10-18T08:47:31.879Z,67.85
2022-10-18T08:48:32.912Z,66.49
2022-10-18T08:49:33.435Z,66.3
2022-10-18T08:50:34.164Z,67.43
2022-10-18T08:51:35.099Z,67.33
2022-10-18T08:52:35.852Z,68.35
2022-10-18T08:53:39.138Z,68.52
2022-10-18T08:54:36.664Z,68.99
2022-10-18T08:55:37.494Z,69.48
2022-10-18T08:56:37.596Z,70.73
2022-10-18T08:57:39.690Z,71.41
2022-10-18T08:58:39.340Z,70.35
2022-10-18T08:59:40.214Z,70.06
2022-10-18T09:00:40.498Z,70.35
2022-10-18T09:01:40.906Z,70.92
2022-10-18T09:02:41.783Z,71.5
2022-10-18T09:03:42.229Z,71.89
2022-10-18T09:04:42.384Z,71.5
2022-10-18T09:05:43.585Z,71.89
2022-10-18T09:06:43.940Z,71.12
2022-10-18T09:07:43.854Z,70.54
2022-10-18T09:08:45.059Z,70.44
2022-10-18T09:09:46.042Z,71.02
2022-10-18T09:10:46.358Z,70.73
2022-10-18T09:11:46.189Z,70.83
2022-10-18T09:12:46.465Z,70.25
2022-10-18T09:13:46.968Z,70.54
2022-10-18T09:14:47.183Z,70.83
2022-10-18T09:15:47.430Z,70.6
2022-10-18T09:16:47.588Z,69.48
2022-10-18T09:17:47.880Z,69.35
2022-10-18T09:18:48.806Z,69.93
2022-10-18T09:19:49.765Z,70.15
2022-10-18T09:20:49.602Z,70.06
2022-10-18T09:21:50.259Z,68.9
2022-10-18T09:22:51.117Z,68.99
2022-10-18T09:23:52.111Z,68.23
2022-10-18T09:24:53.090Z,69.09
2022-10-18T09:25:53.793Z,68.84
2022-10-18T09:26:54.146Z,68.35
2022-10-18T09:27:54.471Z,68.65
2022-10-18T09:28:55.090Z,68.19
2022-10-18T09:29:55.703Z,68.01
2022-10-18T09:30:57.271Z,68.1
2022-10-18T09:31:56.401Z,68.19
2022-10-18T09:32:57.078Z,69.26
2022-10-18T09:33:57.012Z,68.39
2022-10-18T09:34:58.210Z,68.93
2022-10-18T09:35:59.143Z,68.74
2022-10-18T09:36:59.730Z,69.51
2022-10-18T09:38:00.380Z,69.42
2022-10-18T09:39:05.376Z,69.45
2022-10-18T09:40:01.020Z,68.87
2022-10-18T09:41:01.312Z,66.46
2022-10-18T09:42:01.978Z,66.17
2022-10-18T09:43:03.185Z,65.98
2022-10-18T09:44:03.417Z,65.69
2022-10-18T09:45:04.050Z,64.92
2022-10-18T09:46:04.270Z,65.4
2022-10-18T09:47:05.002Z,64.72
2022-10-18T09:48:05.252Z,65.5
2022-10-18T09:49:06.464Z,64.53
2022-10-18T09:50:06.615Z,64.43
2022-10-18T09:51:07.242Z,65.59
2022-10-18T09:52:08.462Z,65.59
2022-10-18T09:53:08.672Z,65.59
2022-10-18T09:54:09.642Z,67.43
2022-10-18T09:55:10.546Z,67.91
2022-10-18T09:56:10.456Z,67.91
2022-10-18T09:57:11.367Z,68.39
2022-10-18T09:58:11.264Z,67.91
2022-10-18T09:59:12.195Z,67.91
2022-10-18T10:00:12.399Z,68.49
2022-10-18T10:01:12.603Z,67.43
2022-10-18T10:02:13.601Z,66.94
2022-10-18T10:03:14.502Z,68.49
2022-10-18T10:04:15.158Z,68.49
2022-10-18T10:05:16.527Z,68.59
2022-10-18T10:06:16.147Z,68.59
2022-10-18T10:07:16.889Z,67.91
2022-10-18T10:08:17.996Z,66.56
2022-10-18T10:09:18.659Z,66.08
2022-10-18T10:10:19.611Z,67.52
2022-10-18T10:11:19.880Z,67.14
2022-10-18T10:12:20.405Z,66.08
2022-10-18T10:13:21.377Z,65.53
2022-10-18T10:14:21.322Z,65.05
2022-10-18T10:15:21.815Z,65.24
2022-10-18T10:16:22.331Z,65.24
2022-10-18T10:17:22.764Z,65.14
2022-10-18T10:18:23.652Z,64.28
2022-10-18T10:19:24.155Z,66.01
2022-10-18T10:20:24.386Z,65.47
2022-10-18T10:21:24.332Z,63.34
2022-10-18T10:22:25.557Z,64.5
2022-10-18T10:23:25.917Z,65.47
2022-10-18T10:24:28.697Z,64.21
2022-10-18T10:25:27.265Z,63.92
2022-10-18T10:26:28.264Z,64.31
2022-10-18T10:27:28.349Z,64.59
2022-10-18T10:28:29.750Z,63.73
2022-10-18T10:29:49.303Z,61.89
2022-10-18T10:30:30.309Z,61.99
2022-10-18T10:31:30.935Z,62.28
2022-10-18T10:32:31.900Z,62.66
2022-10-18T10:33:31.886Z,62.66
2022-10-18T10:34:32.381Z,62.28
2022-10-18T10:35:54.486Z,62.31
2022-10-18T10:36:34.436Z,64.05
2022-10-18T10:37:35.516Z,64.24
2022-10-18T10:38:35.088Z,63.76
2022-10-18T10:39:35.418Z,64.05
2022-10-18T10:40:35.546Z,62.7
2022-10-18T10:41:36.199Z,62.15
2022-10-18T10:42:37.268Z,62.34
2022-10-18T10:43:43.491Z,62.47
2022-10-18T10:44:38.698Z,62.95
2022-10-18T10:45:39.627Z,61.72
2022-10-18T10:46:40.558Z,61.53
2022-10-18T10:47:41.618Z,61.33
2022-10-18T10:48:42.156Z,61.36
2022-10-18T10:49:46.904Z,60.3
2022-10-18T10:50:44.965Z,58.75
2022-10-18T10:51:43.765Z,59.43
2022-10-18T10:52:44.537Z,59.43
2022-10-18T10:53:45.041Z,59.94
2022-10-18T10:54:48.976Z,58.98
2022-10-18T10:55:44.993Z,58.62
2022-10-18T10:56:45.660Z,59.97
2022-10-18T10:57:46.707Z,59.2
2022-10-18T10:58:47.226Z,59.1
2022-10-18T10:59:47.569Z,59.2
2022-10-18T11:00:47.791Z,60.17
2022-10-18T11:01:49.035Z,60.07
2022-10-18T11:03:06.098Z,59.52
2022-10-18T11:03:50.057Z,60.58
2022-10-18T11:04:50.558Z,61.07
2022-10-18T11:05:51.064Z,60.49
2022-10-18T11:06:51.432Z,60.27
2022-10-18T11:07:51.870Z,60.65
2022-10-18T11:08:53.102Z,61.82
2022-10-18T11:09:54.108Z,62.3
2022-10-18T11:10:54.634Z,61.88
2022-10-18T11:11:54.869Z,62.3
2022-10-18T11:12:55.832Z,62.49
2022-10-18T11:14:24.544Z,59.97
2022-10-18T11:14:56.464Z,59.3
2022-10-18T11:15:57.675Z,59.78
2022-10-18T11:16:57.884Z,60.33
2022-10-18T11:17:58.050Z,60.43
2022-10-18T11:18:58.519Z,61.21
2022-10-18T11:19:59.072Z,61.4
2022-10-18T11:21:00.002Z,61.69
2022-10-18T11:22:00.953Z,61.3
2022-10-18T11:23:01.462Z,62.4
2022-10-18T11:24:02.434Z,64.53
2022-10-18T11:25:02.687Z,65.3
2022-10-18T11:26:03.335Z,65.59
2022-10-18T11:27:04.388Z,64.53
2022-10-18T11:28:05.714Z,64.43
2022-10-18T11:29:05.798Z,64.24
2022-10-18T11:30:06.149Z,63.56
2022-10-18T11:31:07.160Z,65.01
2022-10-18T11:32:07.086Z,64.82
2022-10-18T11:33:08.016Z,65.3
2022-10-18T11:34:16.068Z,65.59
2022-10-18T11:35:09.344Z,64.75
2022-10-18T11:36:10.270Z,64.47
2022-10-18T11:37:40.203Z,64.56
2022-10-18T11:38:29.142Z,64.56
2022-10-18T11:39:29.882Z,64.65
2022-10-18T11:40:30.122Z,65.43
2022-10-18T11:41:31.051Z,65.92
2022-10-18T11:42:31.995Z,63.59
2022-10-18T11:44:01.508Z,63.59
2022-10-18T11:44:33.375Z,62.04
2022-10-18T11:45:37.467Z,61.26
2022-10-18T11:46:34.689Z,61.39
2022-10-18T11:47:35.822Z,62.46
2022-10-18T11:48:35.532Z,63.23
2022-10-18T11:49:36.032Z,62.75
2022-10-18T11:50:36.578Z,63.43
2022-10-18T11:51:56.243Z,64.5
2022-10-18T11:52:37.523Z,64.78
2022-10-18T11:53:38.458Z,64.78
2022-10-18T11:54:41.705Z,63.53
2022-10-18T11:55:39.737Z,61.68
2022-10-18T11:56:39.969Z,63.36
2022-10-18T11:57:41.489Z,63.65
2022-10-18T11:58:41.229Z,62.98
2022-10-18T11:59:42.481Z,60.74
2022-10-18T12:00:42.702Z,59.87
2022-10-18T12:01:43.213Z,61.81
2022-10-18T12:02:43.523Z,61.52
2022-10-18T12:03:43.461Z,61.81
2022-10-18T12:05:22.396Z,60.16
2022-10-18T12:05:44.623Z,61.52
2022-10-18T12:06:45.275Z,60.94
2022-10-18T12:07:46.212Z,61.42
2022-10-18T12:08:46.900Z,61.71
2022-10-18T12:11:06.553Z,60.64
2022-10-18T12:11:55.658Z,61.65
2022-10-18T12:12:49.158Z,61.81
2022-10-18T12:13:50.110Z,61.45
2022-10-18T12:14:50.074Z,60.74
2022-10-18T12:15:50.991Z,61.52
2022-10-18T12:17:13.718Z,60.74
2022-10-18T12:18:02.689Z,61.94
2022-10-18T12:19:02.908Z,60.55
2022-10-18T12:20:02.961Z,60.64
2022-10-18T12:21:03.210Z,60.64
2022-10-18T12:22:03.926Z,60.06
2022-10-18T12:23:04.163Z,60.74
2022-10-18T12:24:04.802Z,62.01
2022-10-18T12:25:05.473Z,62.81
2022-10-18T12:26:06.442Z,63.1
2022-10-18T12:27:07.284Z,64.65
2022-10-18T12:28:07.901Z,65.92
2022-10-18T12:29:08.504Z,63.52
2022-10-18T12:30:09.558Z,63.23
2022-10-18T12:31:10.201Z,63.52
2022-10-18T12:32:10.408Z,63.71
2022-10-18T12:33:32.230Z,63.52
2022-10-18T12:34:11.156Z,64.69
2022-10-18T12:35:11.402Z,63.52
2022-10-18T12:36:12.045Z,64.88
2022-10-18T12:37:12.570Z,64.3
2022-10-18T12:38:13.518Z,63.04
2022-10-18T12:39:14.606Z,64.59
2022-10-18T12:40:21.396Z,62.65
2022-10-18T12:41:14.911Z,62.65
2022-10-18T12:42:15.861Z,63.62
2022-10-18T12:43:15.866Z,62.55
2022-10-18T12:44:16.831Z,62.74
2022-10-18T12:45:16.758Z,62.16
2022-10-18T12:46:19.518Z,63.62
2022-10-18T12:47:18.923Z,62.45
2022-10-18T12:48:19.882Z,63.42
2022-10-18T12:49:20.306Z,63.13
2022-10-18T12:50:21.242Z,62.26
2022-10-18T12:51:22.190Z,62.35
2022-10-18T12:52:22.729Z,63.04
2022-10-18T12:53:22.976Z,65.01
2022-10-18T12:54:23.907Z,65.59
2022-10-18T12:55:24.128Z,65.01
2022-10-18T12:56:28.597Z,63.84
2022-10-18T12:57:24.830Z,63.65
2022-10-18T12:58:25.222Z,64.81
2022-10-18T12:59:25.941Z,63.84
2022-10-18T13:00:26.595Z,62.38
2022-10-18T13:01:27.943Z,63.36
2022-10-18T13:02:28.220Z,62.38
2022-10-18T13:03:29.072Z,63.32
2022-10-18T13:04:29.749Z,64.69
2022-10-18T13:05:55.186Z,64.88
2022-10-18T13:06:30.416Z,64.65
2022-10-18T13:07:31.225Z,64.75